createdAt,value
2019-05-06T00:00:36.436Z,48.49
2019-05-06T00:01:36.428Z,48.49
2019-05-06T00:02:36.442Z,48.49
2019-05-06T00:03:36.399Z,48.49
2019-05-06T00:04:36.390Z,48.49
2019-05-06T00:05:36.381Z,48.49
2019-05-06T00:06:36.373Z,48.49
2019-05-06T00:07:36.361Z,48.49
2019-05-06T00:08:36.364Z,48.49
2019-05-06T00:09:36.333Z,48.49
2019-05-06T00:10:36.322Z,48.38
2019-05-06T00:11:36.322Z,48.38
2019-05-06T00:12:36.310Z,48.38
2019-05-06T00:13:36.527Z,48.41
2019-05-06T00:14:36.279Z,48.38
2019-05-06T00:15:36.277Z,48.49
2019-05-06T00:16:36.266Z,48.38
2019-05-06T00:17:36.253Z,48.49
2019-05-06T00:18:36.243Z,48.38
2019-05-06T00:19:36.248Z,48.38
2019-05-06T00:20:36.213Z,48.38
2019-05-06T00:21:36.207Z,48.38
2019-05-06T00:22:36.209Z,48.49
2019-05-06T00:23:38.197Z,48.49
2019-05-06T00:24:36.179Z,48.49
2019-05-06T00:25:36.187Z,48.49
2019-05-06T00:26:36.159Z,48.49
2019-05-06T00:27:36.139Z,48.58
2019-05-06T00:28:36.223Z,48.49
2019-05-06T00:29:36.122Z,48.49
2019-05-06T00:30:36.110Z,48.49
2019-05-06T00:31:36.097Z,48.49
2019-05-06T00:32:36.086Z,48.49
2019-05-06T00:33:36.079Z,48.49
2019-05-06T00:34:36.087Z,48.50
2019-05-06T00:35:36.069Z,48.49
2019-05-06T00:36:36.043Z,48.50
2019-05-06T00:37:36.035Z,48.41
2019-05-06T00:38:36.024Z,48.50
2019-05-06T00:39:36.226Z,48.38
2019-05-06T00:40:35.998Z,48.49
2019-05-06T00:41:36.650Z,48.49
2019-05-06T00:42:35.980Z,48.49
2019-05-06T00:43:35.974Z,48.49
2019-05-06T00:44:35.969Z,48.49
2019-05-06T00:45:35.980Z,48.49
2019-05-06T00:46:35.938Z,48.50
2019-05-06T00:47:35.929Z,48.38
2019-05-06T00:48:35.915Z,48.41
2019-05-06T00:49:35.902Z,48.38
2019-05-06T00:50:35.936Z,48.50
2019-05-06T00:51:35.889Z,48.49
2019-05-06T00:52:35.871Z,48.50
2019-05-06T00:53:35.862Z,48.41
2019-05-06T00:54:35.855Z,48.41
2019-05-06T00:55:35.864Z,48.49
2019-05-06T00:56:36.065Z,48.49
2019-05-06T00:57:35.816Z,48.49
2019-05-06T00:58:35.809Z,48.50
2019-05-06T00:59:35.795Z,48.50
2019-05-06T01:00:35.786Z,48.58
2019-05-06T01:01:35.774Z,48.49
2019-05-06T01:02:35.789Z,48.50
2019-05-06T01:03:35.752Z,48.49
2019-05-06T01:04:35.745Z,48.50
2019-05-06T01:05:35.733Z,48.50
2019-05-06T01:06:35.719Z,48.38
2019-05-06T01:07:35.708Z,48.41
2019-05-06T01:08:35.740Z,48.38
2019-05-06T01:09:35.693Z,48.38
2019-05-06T01:10:35.682Z,48.50
2019-05-06T01:11:35.670Z,48.49
2019-05-06T01:12:35.658Z,48.50
2019-05-06T01:13:35.650Z,48.50
2019-05-06T01:14:35.662Z,48.50
2019-05-06T01:15:35.626Z,48.50
2019-05-06T01:16:35.616Z,48.50
2019-05-06T01:17:35.599Z,48.50
2019-05-06T01:18:35.640Z,48.49
2019-05-06T01:19:35.584Z,48.50
2019-05-06T01:20:35.571Z,48.50
2019-05-06T01:21:35.562Z,48.41
2019-05-06T01:22:35.553Z,48.41
2019-05-06T01:23:35.545Z,48.50
2019-05-06T01:24:35.546Z,48.41
2019-05-06T01:25:35.521Z,48.41
2019-05-06T01:26:35.511Z,48.50
2019-05-06T01:27:35.497Z,48.50
2019-05-06T01:28:35.486Z,48.50
2019-05-06T01:29:35.503Z,48.50
2019-05-06T01:30:35.462Z,48.50
2019-05-06T01:31:42.908Z,48.41
2019-05-06T01:32:36.445Z,48.49
2019-05-06T01:33:35.432Z,48.50
2019-05-06T01:34:35.424Z,48.41
2019-05-06T01:35:35.437Z,48.41
2019-05-06T01:36:35.397Z,48.41
2019-05-06T01:37:35.388Z,48.41
2019-05-06T01:38:35.378Z,48.50
2019-05-06T01:39:35.363Z,48.50
2019-05-06T01:40:35.353Z,48.50
2019-05-06T01:41:35.374Z,48.50
2019-05-06T01:42:35.337Z,48.50
2019-05-06T01:43:35.341Z,48.50
2019-05-06T01:44:35.314Z,48.41
2019-05-06T01:45:35.302Z,48.50
2019-05-06T01:46:35.289Z,48.41
2019-05-06T01:47:35.285Z,48.50
2019-05-06T01:48:35.273Z,48.50
2019-05-06T01:49:35.275Z,48.50
2019-05-06T01:50:35.252Z,48.50
2019-05-06T01:51:35.261Z,48.50
2019-05-06T01:52:35.226Z,48.41
2019-05-06T01:53:35.219Z,48.41
2019-05-06T01:54:35.238Z,48.50
2019-05-06T01:55:35.196Z,48.50
2019-05-06T01:56:35.187Z,48.50
2019-05-06T01:57:35.177Z,48.50
2019-05-06T01:58:35.162Z,48.41
2019-05-06T01:59:35.152Z,48.41
2019-05-06T02:00:35.160Z,48.41
2019-05-06T02:01:35.128Z,48.41
2019-05-06T02:02:35.119Z,48.41
2019-05-06T02:03:35.106Z,48.41
2019-05-06T02:04:35.107Z,48.41
2019-05-06T02:05:35.116Z,48.41
2019-05-06T02:06:35.076Z,48.50
2019-05-06T02:07:35.074Z,48.50
2019-05-06T02:08:35.057Z,48.41
2019-05-06T02:09:35.046Z,48.50
2019-05-06T02:10:38.051Z,48.50
2019-05-06T02:11:35.043Z,48.41
2019-05-06T02:12:35.016Z,48.50
2019-05-06T02:13:35.005Z,48.50
2019-05-06T02:14:35.003Z,48.50
2019-05-06T02:15:34.985Z,48.50
2019-05-06T02:16:34.975Z,48.50
2019-05-06T02:17:34.978Z,48.50
2019-05-06T02:18:34.955Z,48.50
2019-05-06T02:19:34.943Z,48.50
2019-05-06T02:20:34.924Z,48.50
2019-05-06T02:21:34.922Z,48.50
2019-05-06T02:22:34.927Z,48.50
2019-05-06T02:23:34.898Z,48.50
2019-05-06T02:24:34.887Z,48.50
2019-05-06T02:25:34.875Z,48.50
2019-05-06T02:26:34.861Z,48.50
2019-05-06T02:27:34.851Z,48.50
2019-05-06T02:28:34.865Z,48.61
2019-05-06T02:29:34.833Z,48.50
2019-05-06T02:30:36.453Z,48.50
2019-05-06T02:31:35.427Z,48.50
2019-05-06T02:32:35.868Z,48.50
2019-05-06T02:33:35.570Z,48.41
2019-05-06T02:34:36.467Z,48.50
2019-05-06T02:35:35.047Z,48.50
2019-05-06T02:36:34.761Z,48.50
2019-05-06T02:37:35.222Z,48.50
2019-05-06T02:38:45.959Z,48.50
2019-05-06T02:39:35.744Z,48.50
2019-05-06T02:40:34.716Z,48.50
2019-05-06T02:41:34.700Z,48.50
2019-05-06T02:42:34.690Z,48.50
2019-05-06T02:43:34.878Z,48.50
2019-05-06T02:44:34.666Z,48.50
2019-05-06T02:45:34.680Z,48.50
2019-05-06T02:46:34.659Z,48.50
2019-05-06T02:47:34.659Z,48.61
2019-05-06T02:48:34.620Z,48.50
2019-05-06T02:49:34.611Z,48.41
2019-05-06T02:50:34.623Z,48.50
2019-05-06T02:51:34.592Z,48.50
2019-05-06T02:52:34.582Z,48.50
2019-05-06T02:53:34.575Z,48.50
2019-05-06T02:54:34.859Z,48.50
2019-05-06T02:55:36.242Z,48.50
2019-05-06T02:56:34.563Z,48.50
2019-05-06T02:57:34.530Z,48.50
2019-05-06T02:58:34.538Z,48.50
2019-05-06T02:59:34.511Z,48.50
2019-05-06T03:00:34.517Z,48.50
2019-05-06T03:01:34.510Z,48.50
2019-05-06T03:02:42.443Z,48.41
2019-05-06T03:03:35.463Z,48.50
2019-05-06T03:04:34.449Z,48.41
2019-05-06T03:05:34.436Z,48.50
2019-05-06T03:06:34.458Z,48.41
2019-05-06T03:07:37.644Z,48.41
2019-05-06T03:08:34.408Z,48.41
2019-05-06T03:09:34.398Z,48.41
2019-05-06T03:10:34.408Z,48.41
2019-05-06T03:11:34.375Z,48.41
2019-05-06T03:12:34.392Z,48.50
2019-05-06T03:13:34.465Z,48.41
2019-05-06T03:14:34.874Z,48.41
2019-05-06T03:15:34.511Z,48.41
2019-05-06T03:16:34.323Z,48.41
2019-05-06T03:17:34.314Z,48.41
2019-05-06T03:18:34.337Z,48.41
2019-05-06T03:19:34.398Z,48.41
2019-05-06T03:20:35.892Z,48.50
2019-05-06T03:21:37.050Z,48.50
2019-05-06T03:22:34.728Z,48.50
2019-05-06T03:23:35.118Z,48.41
2019-05-06T03:24:34.246Z,48.41
2019-05-06T03:25:34.232Z,48.41
2019-05-06T03:26:34.212Z,48.50
2019-05-06T03:27:34.203Z,48.41
2019-05-06T03:28:34.226Z,48.41
2019-05-06T03:29:34.185Z,48.41
2019-05-06T03:30:36.287Z,48.41
2019-05-06T03:31:36.366Z,48.50
2019-05-06T03:32:41.172Z,48.50
2019-05-06T03:33:57.029Z,48.41
2019-05-06T03:34:57.696Z,48.41
2019-05-06T03:35:50.173Z,48.50
2019-05-06T03:36:40.751Z,48.41
2019-05-06T03:37:35.098Z,48.41
2019-05-06T03:38:34.088Z,48.41
2019-05-06T03:39:34.105Z,48.41
2019-05-06T03:40:36.687Z,48.50
2019-05-06T03:41:35.063Z,48.50
2019-05-06T03:42:34.041Z,48.50
2019-05-06T03:43:34.172Z,48.50
2019-05-06T03:44:34.023Z,48.41
2019-05-06T03:45:34.040Z,48.41
2019-05-06T03:46:34.229Z,48.41
2019-05-06T03:47:34.823Z,48.41
2019-05-06T03:48:33.975Z,48.41
2019-05-06T03:49:34.046Z,48.50
2019-05-06T03:50:33.955Z,48.50
2019-05-06T03:51:34.503Z,48.41
2019-05-06T03:52:34.476Z,48.41
2019-05-06T03:53:33.923Z,48.50
2019-05-06T03:54:34.447Z,48.41
2019-05-06T03:55:34.399Z,48.41
2019-05-06T03:56:34.057Z,48.41
2019-05-06T03:57:36.164Z,48.41
2019-05-06T03:58:34.708Z,48.41
2019-05-06T03:59:33.910Z,48.41
2019-05-06T04:00:33.847Z,48.50
2019-05-06T04:01:33.891Z,48.41
2019-05-06T04:02:34.011Z,48.41
2019-05-06T04:03:44.107Z,48.41
2019-05-06T04:04:34.825Z,48.41
2019-05-06T04:05:33.794Z,48.50
2019-05-06T04:06:33.802Z,48.50
2019-05-06T04:07:34.173Z,48.41
2019-05-06T04:08:34.431Z,48.41
2019-05-06T04:09:36.913Z,48.41
2019-05-06T04:10:36.935Z,48.41
2019-05-06T04:11:36.215Z,48.50
2019-05-06T04:12:33.722Z,48.41
2019-05-06T04:13:33.709Z,48.41
2019-05-06T04:14:34.163Z,48.41
2019-05-06T04:15:34.264Z,48.41
2019-05-06T04:16:33.921Z,48.41
2019-05-06T04:17:33.671Z,48.41
2019-05-06T04:18:33.654Z,48.41
2019-05-06T04:19:33.644Z,48.41
2019-05-06T04:20:34.379Z,48.41
2019-05-06T04:21:33.627Z,48.41
2019-05-06T04:22:33.651Z,48.50
2019-05-06T04:23:33.609Z,48.41
2019-05-06T04:24:33.859Z,48.41
2019-05-06T04:25:34.068Z,48.50
2019-05-06T04:26:33.573Z,48.50
2019-05-06T04:27:33.870Z,48.50
2019-05-06T04:28:34.307Z,48.41
2019-05-06T04:29:35.642Z,48.41
2019-05-06T04:30:33.601Z,48.41
2019-05-06T04:31:33.817Z,48.41
2019-05-06T04:32:34.227Z,48.41
2019-05-06T04:33:33.493Z,48.41
2019-05-06T04:34:33.480Z,48.41
2019-05-06T04:35:33.952Z,48.41
2019-05-06T04:36:33.871Z,48.41
2019-05-06T04:37:34.082Z,48.41
2019-05-06T04:38:33.868Z,48.41
2019-05-06T04:39:33.491Z,48.41
2019-05-06T04:40:33.421Z,48.41
2019-05-06T04:41:34.261Z,48.41
2019-05-06T04:42:34.412Z,48.41
2019-05-06T04:43:33.868Z,48.41
2019-05-06T04:44:33.602Z,48.41
2019-05-06T04:45:33.869Z,48.41
2019-05-06T04:46:34.874Z,48.41
2019-05-06T04:47:33.338Z,48.41
2019-05-06T04:48:33.351Z,48.41
2019-05-06T04:49:33.355Z,48.41
2019-05-06T04:50:33.541Z,48.41
2019-05-06T04:51:37.048Z,48.41
2019-05-06T04:52:34.230Z,48.41
2019-05-06T04:53:33.997Z,48.41
2019-05-06T04:54:33.750Z,48.41
2019-05-06T04:55:33.676Z,48.41
2019-05-06T04:56:33.480Z,48.41
2019-05-06T04:57:33.786Z,48.41
2019-05-06T04:58:33.669Z,48.41
2019-05-06T04:59:33.213Z,48.41
2019-05-06T05:00:33.301Z,48.41
2019-05-06T05:01:34.075Z,48.41
2019-05-06T05:02:33.878Z,48.41
2019-05-06T05:03:33.689Z,48.41
2019-05-06T05:04:36.622Z,48.41
2019-05-06T05:05:33.386Z,48.41
2019-05-06T05:06:33.138Z,48.41
2019-05-06T05:07:33.521Z,48.50
2019-05-06T05:08:33.216Z,48.41
2019-05-06T05:09:33.109Z,48.50
2019-05-06T05:10:33.102Z,48.41
2019-05-06T05:11:33.429Z,48.41
2019-05-06T05:12:33.716Z,48.41
2019-05-06T05:13:33.095Z,48.41
2019-05-06T05:14:33.053Z,48.41
2019-05-06T05:15:33.042Z,48.41
2019-05-06T05:16:33.287Z,48.41
2019-05-06T05:17:33.228Z,48.41
2019-05-06T05:18:33.046Z,48.41
2019-05-06T05:19:32.998Z,48.41
2019-05-06T05:20:38.239Z,48.41
2019-05-06T05:21:33.975Z,48.41
2019-05-06T05:22:32.963Z,48.41
2019-05-06T05:23:32.956Z,48.41
2019-05-06T05:24:32.973Z,48.41
2019-05-06T05:25:32.949Z,48.41
2019-05-06T05:26:32.916Z,48.50
2019-05-06T05:27:33.051Z,48.41
2019-05-06T05:28:32.896Z,48.41
2019-05-06T05:29:32.923Z,48.41
2019-05-06T05:30:32.941Z,48.41
2019-05-06T05:31:33.357Z,48.41
2019-05-06T05:32:32.851Z,48.50
2019-05-06T05:33:32.965Z,48.50
2019-05-06T05:34:39.976Z,48.50
2019-05-06T05:35:33.848Z,48.41
2019-05-06T05:36:33.000Z,48.41
2019-05-06T05:37:32.925Z,48.41
2019-05-06T05:38:32.784Z,48.41
2019-05-06T05:39:33.314Z,48.41
2019-05-06T05:40:32.767Z,48.50
2019-05-06T05:41:33.366Z,48.41
2019-05-06T05:42:32.897Z,48.41
2019-05-06T05:43:32.736Z,48.50
2019-05-06T05:44:32.727Z,48.50
2019-05-06T05:45:32.805Z,48.50
2019-05-06T05:46:33.108Z,48.41
2019-05-06T05:47:33.166Z,48.41
2019-05-06T05:48:32.685Z,48.41
2019-05-06T05:49:32.672Z,48.41
2019-05-06T05:50:32.716Z,48.41
2019-05-06T05:51:32.646Z,48.50
2019-05-06T05:52:32.987Z,48.41
2019-05-06T05:53:33.005Z,48.41
2019-05-06T05:54:33.275Z,48.41
2019-05-06T05:55:33.088Z,48.41
2019-05-06T05:56:33.111Z,48.41
2019-05-06T05:57:32.581Z,48.50
2019-05-06T05:58:33.052Z,48.50
2019-05-06T05:59:33.030Z,48.41
2019-05-06T06:00:32.584Z,48.50
2019-05-06T06:01:32.855Z,48.41
2019-05-06T06:02:33.296Z,48.41
2019-05-06T06:03:32.519Z,48.41
2019-05-06T06:04:32.513Z,48.41
2019-05-06T06:05:33.160Z,48.50
2019-05-06T06:06:33.141Z,48.41
2019-05-06T06:07:32.861Z,48.50
2019-05-06T06:08:32.463Z,48.50
2019-05-06T06:09:32.871Z,48.50
2019-05-06T06:10:33.190Z,48.50
2019-05-06T06:11:32.853Z,48.50
2019-05-06T06:12:32.514Z,48.50
2019-05-06T06:13:32.414Z,48.41
2019-05-06T06:14:33.212Z,48.50
2019-05-06T06:15:32.907Z,48.41
2019-05-06T06:16:32.882Z,48.41
2019-05-06T06:17:32.606Z,48.50
2019-05-06T06:18:33.355Z,48.50
2019-05-06T06:19:32.880Z,48.50
2019-05-06T06:20:32.781Z,48.50
2019-05-06T06:21:32.436Z,48.50
2019-05-06T06:22:33.047Z,48.41
2019-05-06T06:23:32.476Z,48.41
2019-05-06T06:24:32.371Z,48.50
2019-05-06T06:25:33.432Z,48.50
2019-05-06T06:26:32.547Z,48.50
2019-05-06T06:27:33.206Z,48.41
2019-05-06T06:28:33.292Z,48.50
2019-05-06T06:29:32.467Z,48.50
2019-05-06T06:30:33.134Z,48.41
2019-05-06T06:31:33.218Z,48.50
2019-05-06T06:32:32.652Z,48.50
2019-05-06T06:33:33.042Z,48.50
2019-05-06T06:34:32.990Z,48.50
2019-05-06T06:35:32.454Z,48.50
2019-05-06T06:36:32.619Z,48.50
2019-05-06T06:37:33.197Z,48.41
2019-05-06T06:38:32.378Z,48.50
2019-05-06T06:39:32.682Z,48.50
2019-05-06T06:40:32.988Z,48.50
2019-05-06T06:41:32.352Z,48.50
2019-05-06T06:42:33.536Z,48.41
2019-05-06T06:43:32.495Z,48.41
2019-05-06T06:44:33.086Z,48.41
2019-05-06T06:45:32.635Z,48.50
2019-05-06T06:46:32.396Z,48.41
2019-05-06T06:47:32.097Z,48.50
2019-05-06T06:48:32.107Z,48.41
2019-05-06T06:49:32.864Z,48.41
2019-05-06T06:50:32.947Z,48.50
2019-05-06T06:51:33.067Z,48.50
2019-05-06T06:52:32.599Z,48.50
2019-05-06T06:53:32.678Z,48.41
2019-05-06T06:54:32.361Z,48.50
2019-05-06T06:55:31.984Z,48.41
2019-05-06T06:56:32.945Z,48.41
2019-05-06T06:57:34.340Z,48.41
2019-05-06T06:58:32.378Z,48.50
2019-05-06T06:59:31.941Z,48.50
2019-05-06T07:00:33.594Z,48.50
2019-05-06T07:01:33.204Z,48.50
2019-05-06T07:02:32.799Z,48.50
2019-05-06T07:03:32.720Z,48.41
2019-05-06T07:04:32.448Z,48.50
2019-05-06T07:05:33.206Z,48.50
2019-05-06T07:06:33.178Z,48.50
2019-05-06T07:07:41.377Z,48.41
2019-05-06T07:08:37.403Z,48.41
2019-05-06T07:09:32.370Z,48.41
2019-05-06T07:10:32.413Z,48.41
2019-05-06T07:11:33.151Z,48.41
2019-05-06T07:12:32.807Z,48.50
2019-05-06T07:13:32.766Z,48.41
2019-05-06T07:14:32.642Z,48.41
2019-05-06T07:15:33.604Z,48.41
2019-05-06T07:16:32.788Z,48.50
2019-05-06T07:17:32.812Z,48.50
2019-05-06T07:18:33.205Z,48.50
2019-05-06T07:19:32.768Z,48.41
2019-05-06T07:20:32.463Z,48.41
2019-05-06T07:21:34.093Z,48.41
2019-05-06T07:22:32.517Z,48.41
2019-05-06T07:23:32.706Z,48.50
2019-05-06T07:24:32.471Z,48.41
2019-05-06T07:25:33.644Z,48.41
2019-05-06T07:26:31.814Z,48.41
2019-05-06T07:27:32.421Z,48.41
2019-05-06T07:28:32.682Z,48.41
2019-05-06T07:29:32.756Z,48.41
2019-05-06T07:30:32.281Z,48.41
2019-05-06T07:31:33.048Z,48.41
2019-05-06T07:32:32.593Z,48.41
2019-05-06T07:33:33.593Z,48.41
2019-05-06T07:34:32.233Z,48.41
2019-05-06T07:36:32.507Z,48.50
2019-05-06T07:37:32.740Z,48.41
2019-05-06T07:38:32.528Z,48.41
2019-05-06T07:39:33.341Z,48.41
2019-05-06T07:40:32.652Z,48.50
2019-05-06T07:41:32.862Z,48.71
2019-05-06T07:42:32.243Z,48.91
2019-05-06T07:43:33.762Z,48.91
2019-05-06T07:44:33.371Z,49.72
2019-05-06T07:45:32.871Z,49.62
2019-05-06T07:46:33.094Z,49.21
2019-05-06T07:47:33.178Z,49.11
2019-05-06T07:48:31.966Z,49.01
2019-05-06T07:49:32.953Z,48.91
2019-05-06T07:50:33.201Z,48.81
2019-05-06T07:51:32.425Z,49.01
2019-05-06T07:52:32.549Z,48.91
2019-05-06T07:53:32.121Z,48.91
2019-05-06T07:54:32.975Z,48.91
2019-05-06T07:55:32.739Z,48.81
2019-05-06T07:56:32.177Z,48.71
2019-05-06T07:57:32.970Z,48.61
2019-05-06T07:58:32.271Z,48.50
2019-05-06T07:59:33.251Z,48.50
2019-05-06T08:00:32.759Z,48.50
2019-05-06T08:01:33.273Z,48.50
2019-05-06T08:02:32.083Z,48.50
2019-05-06T08:03:32.938Z,48.50
2019-05-06T08:04:32.451Z,48.61
2019-05-06T08:05:32.388Z,48.69
2019-05-06T08:06:32.161Z,48.58
2019-05-06T08:07:33.283Z,48.71
2019-05-06T08:08:33.705Z,48.71
2019-05-06T08:09:32.593Z,48.71
2019-05-06T08:10:33.224Z,48.61
2019-05-06T08:11:32.907Z,49.21
2019-05-06T08:12:32.621Z,49.21
2019-05-06T08:13:32.272Z,49.01
2019-05-06T08:14:32.967Z,48.71
2019-05-06T08:15:32.567Z,48.61
2019-05-06T08:16:31.934Z,48.61
2019-05-06T08:17:33.048Z,48.71
2019-05-06T08:18:33.029Z,48.81
2019-05-06T08:19:33.383Z,49.01
2019-05-06T08:20:32.469Z,49.01
2019-05-06T08:21:32.647Z,49.01
2019-05-06T08:22:33.278Z,49.11
2019-05-06T08:23:32.513Z,49.11
2019-05-06T08:24:33.214Z,49.11
2019-05-06T08:25:32.926Z,49.21
2019-05-06T08:26:32.300Z,49.21
2019-05-06T08:27:32.875Z,49.21
2019-05-06T08:28:40.639Z,49.21
2019-05-06T08:29:33.043Z,49.31
2019-05-06T08:30:32.390Z,49.41
2019-05-06T08:31:32.735Z,49.41
2019-05-06T08:32:32.143Z,49.31
2019-05-06T08:33:32.763Z,49.31
2019-05-06T08:34:30.909Z,49.31
2019-05-06T08:35:33.052Z,49.41
2019-05-06T08:36:32.836Z,49.41
2019-05-06T08:37:32.073Z,49.31
2019-05-06T08:38:32.635Z,49.41
2019-05-06T08:39:32.636Z,49.41
2019-05-06T08:40:32.147Z,49.41
2019-05-06T08:41:32.641Z,49.41
2019-05-06T08:42:32.784Z,49.41
2019-05-06T08:43:32.627Z,49.41
2019-05-06T08:44:32.249Z,49.41
2019-05-06T08:45:32.501Z,49.52
2019-05-06T08:46:32.641Z,49.41
2019-05-06T08:47:32.854Z,49.41
2019-05-06T08:48:32.460Z,49.31
2019-05-06T08:49:32.035Z,49.41
2019-05-06T08:50:32.521Z,49.41
2019-05-06T08:51:33.066Z,49.41
2019-05-06T08:52:32.282Z,49.41
2019-05-06T08:53:32.813Z,49.41
2019-05-06T08:54:32.469Z,49.41
2019-05-06T08:55:32.475Z,49.31
2019-05-06T08:56:32.073Z,49.31
2019-05-06T08:57:32.404Z,49.41
2019-05-06T08:58:32.390Z,49.41
2019-05-06T08:59:32.093Z,49.31
2019-05-06T09:00:32.348Z,49.31
2019-05-06T09:01:32.510Z,49.31
2019-05-06T09:02:32.418Z,49.31
2019-05-06T09:03:32.661Z,49.31
2019-05-06T09:04:32.072Z,49.31
2019-05-06T09:05:30.536Z,49.31
2019-05-06T09:06:34.079Z,49.31
2019-05-06T09:07:32.023Z,49.31
2019-05-06T09:08:32.443Z,49.31
2019-05-06T09:09:32.486Z,49.31
2019-05-06T09:10:32.401Z,49.31
2019-05-06T09:11:32.169Z,49.31
2019-05-06T09:12:32.807Z,49.31
2019-05-06T09:13:32.542Z,49.31
2019-05-06T09:14:32.632Z,49.31
2019-05-06T09:15:32.546Z,49.31
2019-05-06T09:16:32.927Z,49.31
2019-05-06T09:17:30.411Z,49.31
2019-05-06T09:18:32.817Z,49.31
2019-05-06T09:19:32.970Z,49.31
2019-05-06T09:20:32.459Z,49.31
2019-05-06T09:21:30.410Z,49.31
2019-05-06T09:22:32.448Z,49.31
2019-05-06T09:23:32.394Z,49.31
2019-05-06T09:24:32.127Z,49.31
2019-05-06T09:25:32.284Z,49.31
2019-05-06T09:26:32.335Z,49.31
2019-05-06T09:27:30.304Z,49.31
2019-05-06T09:28:30.344Z,49.31
2019-05-06T09:29:32.606Z,49.31
2019-05-06T09:30:32.960Z,49.31
2019-05-06T09:31:32.176Z,49.31
2019-05-06T09:32:35.651Z,49.31
2019-05-06T09:33:33.107Z,49.31
2019-05-06T09:34:32.489Z,49.31
2019-05-06T09:35:30.223Z,49.31
2019-05-06T09:36:41.126Z,49.31
2019-05-06T09:37:32.531Z,49.31
2019-05-06T09:38:32.066Z,49.31
2019-05-06T09:39:32.155Z,49.31
2019-05-06T09:40:31.883Z,49.31
2019-05-06T09:41:32.339Z,49.31
2019-05-06T09:42:32.053Z,49.41
2019-05-06T09:43:32.691Z,49.41
2019-05-06T09:44:30.129Z,49.41
2019-05-06T09:45:30.123Z,49.41
2019-05-06T09:46:32.165Z,49.31
2019-05-06T09:47:30.091Z,49.31
2019-05-06T09:48:30.083Z,49.31
2019-05-06T09:49:30.073Z,49.31
2019-05-06T09:50:32.357Z,49.31
2019-05-06T09:51:32.367Z,49.31
2019-05-06T09:52:30.068Z,49.31
2019-05-06T09:53:30.056Z,49.31
2019-05-06T09:54:32.051Z,49.31
2019-05-06T09:55:32.423Z,49.31
2019-05-06T09:56:29.997Z,49.31
2019-05-06T09:57:29.983Z,49.31
2019-05-06T09:58:32.316Z,49.31
2019-05-06T09:59:32.037Z,49.31
2019-05-06T10:00:32.755Z,49.31
2019-05-06T10:01:29.949Z,49.31
2019-05-06T10:02:32.362Z,49.31
2019-05-06T10:03:32.117Z,49.31
2019-05-06T10:04:29.910Z,49.41
2019-05-06T10:05:29.938Z,49.31
2019-05-06T10:06:29.891Z,49.31
2019-05-06T10:07:29.875Z,49.31
2019-05-06T10:08:32.049Z,49.41
2019-05-06T10:09:29.857Z,49.31
2019-05-06T10:10:29.847Z,49.31
2019-05-06T10:11:29.852Z,49.41
2019-05-06T10:12:29.820Z,49.31
2019-05-06T10:13:29.813Z,49.31
2019-05-06T10:14:32.058Z,49.31
2019-05-06T10:15:32.137Z,49.41
2019-05-06T10:16:29.786Z,49.31
2019-05-06T10:17:29.768Z,49.41
2019-05-06T10:18:29.762Z,49.31
2019-05-06T10:19:31.985Z,49.31
2019-05-06T10:20:29.738Z,49.41
2019-05-06T10:21:32.196Z,49.41
2019-05-06T10:22:29.720Z,49.41
2019-05-06T10:23:29.709Z,49.41
2019-05-06T10:24:29.696Z,49.41
2019-05-06T10:25:29.725Z,49.41
2019-05-06T10:26:29.680Z,49.41
2019-05-06T10:27:29.660Z,49.41
2019-05-06T10:28:29.679Z,49.41
2019-05-06T10:29:29.646Z,49.41
2019-05-06T10:30:29.636Z,49.41
2019-05-06T10:31:29.670Z,49.41
2019-05-06T10:32:29.611Z,49.41
2019-05-06T10:33:29.645Z,49.41
2019-05-06T10:34:29.599Z,49.41
2019-05-06T10:35:29.825Z,49.41
2019-05-06T10:36:29.571Z,49.41
2019-05-06T10:37:29.557Z,49.41
2019-05-06T10:38:29.550Z,49.31
2019-05-06T10:39:29.569Z,49.31
2019-05-06T10:40:29.562Z,49.31
2019-05-06T10:41:29.537Z,49.31
2019-05-06T10:42:29.505Z,49.31
2019-05-06T10:43:29.501Z,49.41
2019-05-06T10:44:29.483Z,49.31
2019-05-06T10:45:29.482Z,49.31
2019-05-06T10:46:29.493Z,49.41
2019-05-06T10:47:29.451Z,49.31
2019-05-06T10:48:29.445Z,49.31
2019-05-06T10:49:29.429Z,49.31
2019-05-06T10:50:29.424Z,49.31
2019-05-06T10:51:29.428Z,49.31
2019-05-06T10:52:29.434Z,49.31
2019-05-06T10:53:29.417Z,49.52
2019-05-06T10:54:29.383Z,49.62
2019-05-06T10:55:29.368Z,49.52
2019-05-06T10:56:29.363Z,49.41
2019-05-06T10:57:29.344Z,49.41
2019-05-06T10:58:29.337Z,49.62
2019-05-06T10:59:29.355Z,49.72
2019-05-06T11:00:29.319Z,49.72
2019-05-06T11:01:29.303Z,49.82
2019-05-06T11:02:29.295Z,49.82
2019-05-06T11:03:29.286Z,49.41
2019-05-06T11:04:29.319Z,49.31
2019-05-06T11:05:29.261Z,49.41
2019-05-06T11:06:29.256Z,49.52
2019-05-06T11:07:32.104Z,49.41
2019-05-06T11:08:32.455Z,49.21
2019-05-06T11:09:29.224Z,49.01
2019-05-06T11:10:38.051Z,48.91
2019-05-06T11:11:37.730Z,48.91
2019-05-06T11:12:32.449Z,48.91
2019-05-06T11:13:29.175Z,48.81
2019-05-06T11:14:29.175Z,48.91
2019-05-06T11:15:29.185Z,49.31
2019-05-06T11:16:29.142Z,49.52
2019-05-06T11:17:29.136Z,49.41
2019-05-06T11:18:29.122Z,49.21
2019-05-06T11:19:29.120Z,49.01
2019-05-06T11:20:29.108Z,49.01
2019-05-06T11:21:29.124Z,49.11
2019-05-06T11:22:29.077Z,49.01
2019-05-06T11:23:29.096Z,49.11
2019-05-06T11:24:29.065Z,49.11
2019-05-06T11:25:29.047Z,49.11
2019-05-06T11:26:29.043Z,49.11
2019-05-06T11:27:32.632Z,49.11
2019-05-06T11:28:30.053Z,49.01
2019-05-06T11:29:29.010Z,49.11
2019-05-06T11:30:28.994Z,49.52
2019-05-06T11:31:29.094Z,49.92
2019-05-06T11:32:29.003Z,49.92
2019-05-06T11:33:29.000Z,49.72
2019-05-06T11:34:28.953Z,49.31
2019-05-06T11:35:28.947Z,49.21
2019-05-06T11:36:28.931Z,49.11
2019-05-06T11:37:42.276Z,49.01
2019-05-06T11:38:32.123Z,49.21
2019-05-06T11:39:28.899Z,49.11
2019-05-06T11:40:28.919Z,49.01
2019-05-06T11:41:28.876Z,49.11
2019-05-06T11:42:32.654Z,49.21
2019-05-06T11:43:32.312Z,49.31
2019-05-06T11:44:28.848Z,49.31
2019-05-06T11:45:28.842Z,49.31
2019-05-06T11:46:28.824Z,49.01
2019-05-06T11:47:28.828Z,48.81
2019-05-06T11:48:28.810Z,49.11
2019-05-06T11:49:28.840Z,49.31
2019-05-06T11:50:28.786Z,49.31
2019-05-06T11:51:28.772Z,49.31
2019-05-06T11:52:28.769Z,49.31
2019-05-06T11:53:28.759Z,49.11
2019-05-06T11:54:28.752Z,49.01
2019-05-06T11:55:36.149Z,49.01
2019-05-06T11:56:29.723Z,49.11
2019-05-06T11:57:28.722Z,49.11
2019-05-06T11:58:28.701Z,48.81
2019-05-06T11:59:28.692Z,48.61
2019-05-06T12:00:28.731Z,48.50
2019-05-06T12:01:28.694Z,48.50
2019-05-06T12:02:28.655Z,48.41
2019-05-06T12:03:28.644Z,48.50
2019-05-06T12:04:28.633Z,48.50
2019-05-06T12:05:28.626Z,48.71
2019-05-06T12:06:28.659Z,48.71
2019-05-06T12:07:28.605Z,48.81
2019-05-06T12:08:28.603Z,48.81
2019-05-06T12:09:28.577Z,48.81
2019-05-06T12:10:28.578Z,48.91
2019-05-06T12:11:28.555Z,48.91
2019-05-06T12:12:28.593Z,48.91
2019-05-06T12:13:28.534Z,48.91
2019-05-06T12:14:28.525Z,48.81
2019-05-06T12:15:28.522Z,48.81
2019-05-06T12:16:28.506Z,49.01
2019-05-06T12:17:28.496Z,49.11
2019-05-06T12:18:28.518Z,49.11
2019-05-06T12:19:28.472Z,49.01
2019-05-06T12:20:28.484Z,49.01
2019-05-06T12:21:28.449Z,48.89
2019-05-06T12:22:28.444Z,48.89
2019-05-06T12:23:28.658Z,49.01
2019-05-06T12:24:28.424Z,49.09
2019-05-06T12:25:28.412Z,48.99
2019-05-06T12:26:28.401Z,49.09
2019-05-06T12:27:28.389Z,48.99
2019-05-06T12:28:28.387Z,48.99
2019-05-06T12:29:28.597Z,49.09
2019-05-06T12:30:28.351Z,49.19
2019-05-06T12:31:28.342Z,49.19
2019-05-06T12:32:28.331Z,49.19
2019-05-06T12:33:28.342Z,49.29
2019-05-06T12:34:28.314Z,49.39
2019-05-06T12:35:28.356Z,49.39
2019-05-06T12:36:28.293Z,49.29
2019-05-06T12:37:28.307Z,49.29
2019-05-06T12:38:30.986Z,49.29
2019-05-06T12:39:28.264Z,49.19
2019-05-06T12:40:28.253Z,49.19
2019-05-06T12:41:28.285Z,49.19
2019-05-06T12:42:28.230Z,49.09
2019-05-06T12:43:28.230Z,49.09
2019-05-06T12:44:28.210Z,49.09
2019-05-06T12:45:28.196Z,49.09
2019-05-06T12:46:28.190Z,49.19
2019-05-06T12:47:28.222Z,49.29
2019-05-06T12:48:28.167Z,49.29
2019-05-06T12:49:28.155Z,49.39
2019-05-06T12:50:28.146Z,49.39
2019-05-06T12:51:28.131Z,49.39
2019-05-06T12:52:28.119Z,49.49
2019-05-06T12:53:28.155Z,49.39